sensor_id;sensor_type;location;lat;lon;timestamp;pressure;altitude;pressure_sealevel;temperature;humidity
32789;BME280;19141;48.980;8.410;2024-03-17T00:01:04;101145.06;;;5.78;100.00
32789;BME280;19141;48.980;8.410;2024-03-17T00:03:30;101147.94;;;5.61;100.00
32789;BME280;19141;48.980;8.410;2024-03-17T00:05:57;101145.50;;;5.64;100.00
32789;BME280;19141;48.980;8.410;2024-03-17T00:08:22;101135.66;;;5.63;100.00
32789;BME280;19141;48.980;8.410;2024-03-17T00:10:59;101133.66;;;5.63;100.00
32789;BME280;19141;48.980;8.410;2024-03-17T00:13:24;101132.78;;;5.66;100.00
32789;BME280;19141;48.980;8.410;2024-03-17T00:15:50;101136.84;;;5.61;100.00
32789;BME280;19141;48.980;8.410;2024-03-17T00:18:16;101128.47;;;5.52;100.00
32789;BME280;19141;48.980;8.410;2024-03-17T00:20:42;101129.13;;;5.56;100.00
32789;BME280;19141;48.980;8.410;2024-03-17T00:23:09;101131.31;;;5.49;100.00
32789;BME280;19141;48.980;8.410;2024-03-17T00:25:37;101121.81;;;5.37;100.00
32789;BME280;19141;48.980;8.410;2024-03-17T00:28:03;101123.13;;;5.32;100.00
32789;BME280;19141;48.980;8.410;2024-03-17T00:30:28;101120.16;;;5.27;100.00
32789;BME280;19141;48.980;8.410;2024-03-17T00:32:54;101119.47;;;5.35;100.00
32789;BME280;19141;48.980;8.410;2024-03-17T00:35:20;101111.19;;;5.35;100.00
32789;BME280;19141;48.980;8.410;2024-03-17T00:37:49;101121.69;;;5.28;100.00
32789;BME280;19141;48.980;8.410;2024-03-17T00:40:17;101116.72;;;5.35;100.00
32789;BME280;19141;48.980;8.410;2024-03-17T00:42:42;101121.16;;;5.33;100.00
32789;BME280;19141;48.980;8.410;2024-03-17T00:45:08;101115.81;;;5.26;100.00
32789;BME280;19141;48.980;8.410;2024-03-17T00:47:35;101100.78;;;5.14;100.00
32789;BME280;19141;48.980;8.410;2024-03-17T00:50:01;101097.56;;;5.16;100.00
32789;BME280;19141;48.980;8.410;2024-03-17T00:52:27;101093.03;;;5.22;100.00
32789;BME280;19141;48.980;8.410;2024-03-17T00:54:52;101096.34;;;5.17;100.00
32789;BME280;19141;48.980;8.410;2024-03-17T00:57:19;101090.59;;;5.24;100.00
32789;BME280;19141;48.980;8.410;2024-03-17T00:59:44;101098.91;;;5.24;100.00
32789;BME280;19141;48.980;8.410;2024-03-17T05:25:29;100997.38;;;3.24;100.00
32789;BME280;19141;48.980;8.410;2024-03-17T05:27:55;100999.16;;;3.31;100.00
32789;BME280;19141;48.980;8.410;2024-03-17T05:30:20;100995.13;;;3.35;100.00
32789;BME280;19141;48.980;8.410;2024-03-17T05:32:45;101002.97;;;3.20;100.00
32789;BME280;19141;48.980;8.410;2024-03-17T05:35:11;101000.16;;;3.40;100.00
32789;BME280;19141;48.980;8.410;2024-03-17T05:37:36;101001.34;;;3.39;100.00
32789;BME280;19141;48.980;8.410;2024-03-17T05:40:02;100998.94;;;3.41;100.00
32789;BME280;19141;48.980;8.410;2024-03-17T05:42:28;100984.00;;;3.39;100.00
32789;BME280;19141;48.980;8.410;2024-03-17T05:44:53;100988.31;;;3.40;100.00
32789;BME280;19141;48.980;8.410;2024-03-17T05:47:19;100997.19;;;3.47;100.00
32789;BME280;19141;48.980;8.410;2024-03-17T05:49:45;101006.75;;;3.59;100.00
32789;BME280;19141;48.980;8.410;2024-03-17T05:52:11;101004.44;;;4.03;100.00
32789;BME280;19141;48.980;8.410;2024-03-17T05:54:37;101008.09;;;5.70;100.00
32789;BME280;19141;48.980;8.410;2024-03-17T05:57:03;101006.31;;;7.26;100.00
32789;BME280;19141;48.980;8.410;2024-03-17T05:59:30;100998.53;;;8.16;100.00
32789;BME280;19141;48.980;8.410;2024-03-17T06:01:56;101004.06;;;9.05;91.73
32789;BME280;19141;48.980;8.410;2024-03-17T06:04:22;101004.31;;;9.73;84.51
32789;BME280;19141;48.980;8.410;2024-03-17T06:06:47;100998.13;;;10.47;79.50
32789;BME280;19141;48.980;8.410;2024-03-17T06:09:14;100999.56;;;8.65;88.71
32789;BME280;19141;48.980;8.410;2024-03-17T06:11:43;100996.69;;;8.93;88.58
32789;BME280;19141;48.980;8.410;2024-03-17T06:14:08;100992.31;;;9.01;88.86
32789;BME280;19141;48.980;8.410;2024-03-17T06:16:37;101000.81;;;10.02;81.76
32789;BME280;19141;48.980;8.410;2024-03-17T06:19:02;100993.16;;;9.73;81.34
32789;BME280;19141;48.980;8.410;2024-03-17T06:21:28;100997.31;;;12.02;69.92
32789;BME280;19141;48.980;8.410;2024-03-17T06:23:53;100991.19;;;12.50;64.21
32789;BME280;19141;48.980;8.410;2024-03-17T06:26:19;100990.84;;;13.06;64.06
32789;BME280;19141;48.980;8.410;2024-03-17T06:28:46;100995.31;;;10.32;73.24
32789;BME280;19141;48.980;8.410;2024-03-17T06:31:11;101000.84;;;9.78;85.41
32789;BME280;19141;48.980;8.410;2024-03-17T06:33:37;100993.22;;;9.64;87.00
32789;BME280;19141;48.980;8.410;2024-03-17T06:36:03;100991.94;;;10.43;79.82
32789;BME280;19141;48.980;8.410;2024-03-17T06:38:29;100990.25;;;12.33;73.05
32789;BME280;19141;48.980;8.410;2024-03-17T06:40:55;100984.81;;;14.38;61.72
32789;BME280;19141;48.980;8.410;2024-03-17T06:43:20;100990.69;;;15.02;59.33
32789;BME280;19141;48.980;8.410;2024-03-17T06:45:56;100993.53;;;13.69;61.88
32789;BME280;19141;48.980;8.410;2024-03-17T06:48:23;100992.94;;;14.48;60.71
32789;BME280;19141;48.980;8.410;2024-03-17T06:50:48;100999.09;;;13.21;63.72
32789;BME280;19141;48.980;8.410;2024-03-17T06:53:14;100995.16;;;12.70;66.31
32789;BME280;19141;48.980;8.410;2024-03-17T06:55:39;100992.22;;;14.70;60.89
32789;BME280;19141;48.980;8.410;2024-03-17T06:58:05;100991.16;;;12.76;64.94
32789;BME280;19141;48.980;8.410;2024-03-17T07:00:31;100999.09;;;13.64;63.82
32789;BME280;19141;48.980;8.410;2024-03-17T07:02:57;101001.28;;;14.03;61.46
32789;BME280;19141;48.980;8.410;2024-03-17T07:05:22;100991.84;;;14.06;62.20
32789;BME280;19141;48.980;8.410;2024-03-17T07:07:48;100994.78;;;14.96;60.41
32789;BME280;19141;48.980;8.410;2024-03-17T07:10:13;100993.44;;;14.24;60.26
32789;BME280;19141;48.980;8.410;2024-03-17T07:12:39;100998.56;;;16.01;56.47
32789;BME280;19141;48.980;8.410;2024-03-17T07:15:05;100999.06;;;14.40;57.83
32789;BME280;19141;48.980;8.410;2024-03-17T07:17:31;100994.88;;;13.85;61.62
32789;BME280;19141;48.980;8.410;2024-03-17T07:19:56;100993.94;;;14.16;61.78
32789;BME280;19141;48.980;8.410;2024-03-17T07:22:21;100996.84;;;15.93;55.79
32789;BME280;19141;48.980;8.410;2024-03-17T07:24:52;100985.00;;;17.32;51.63
32789;BME280;19141;48.980;8.410;2024-03-17T07:27:22;100982.19;;;14.07;58.78
32789;BME280;19141;48.980;8.410;2024-03-17T07:29:47;100987.81;;;16.05;56.54
32789;BME280;19141;48.980;8.410;2024-03-17T07:32:13;100989.94;;;14.90;59.37
32789;BME280;19141;48.980;8.410;2024-03-17T07:34:38;100995.72;;;14.25;60.24
32789;BME280;19141;48.980;8.410;2024-03-17T07:37:03;100985.88;;;12.84;67.24
32789;BME280;19141;48.980;8.410;2024-03-17T07:39:30;100989.84;;;13.46;62.69
32789;BME280;19141;48.980;8.410;2024-03-17T07:41:59;100993.47;;;12.52;67.39
32789;BME280;19141;48.980;8.410;2024-03-17T07:44:25;100989.75;;;11.47;76.81
32789;BME280;19141;48.980;8.410;2024-03-17T07:46:51;100988.50;;;11.48;78.16
32789;BME280;19141;48.980;8.410;2024-03-17T07:49:16;100978.13;;;12.16;73.16
32789;BME280;19141;48.980;8.410;2024-03-17T07:51:41;100986.63;;;13.22;67.62
32789;BME280;19141;48.980;8.410;2024-03-17T07:54:09;100989.47;;;12.58;71.52
32789;BME280;19141;48.980;8.410;2024-03-17T07:56:34;100998.78;;;10.71;85.79
32789;BME280;19141;48.980;8.410;2024-03-17T07:58:59;100998.09;;;10.32;92.13
32789;BME280;19141;48.980;8.410;2024-03-17T08:01:25;100999.94;;;10.50;88.93
32789;BME280;19141;48.980;8.410;2024-03-17T08:03:50;100988.81;;;11.15;83.30
32789;BME280;19141;48.980;8.410;2024-03-17T08:06:21;100986.63;;;10.89;82.20
32789;BME280;19141;48.980;8.410;2024-03-17T08:08:47;100981.03;;;11.60;81.20
32789;BME280;19141;48.980;8.410;2024-03-17T08:11:12;100986.13;;;12.54;74.65
32789;BME280;19141;48.980;8.410;2024-03-17T08:13:38;100996.06;;;13.67;68.99
32789;BME280;19141;48.980;8.410;2024-03-17T08:16:05;100987.50;;;13.93;68.01
32789;BME280;19141;48.980;8.410;2024-03-17T08:18:32;100990.47;;;14.61;62.69
32789;BME280;19141;48.980;8.410;2024-03-17T08:20:59;100988.28;;;13.02;68.67
32789;BME280;19141;48.980;8.410;2024-03-17T08:23:25;100994.91;;;14.02;64.25
32789;BME280;19141;48.980;8.410;2024-03-17T08:25:55;100995.53;;;14.45;63.57
32789;BME280;19141;48.980;8.410;2024-03-17T08:28:21;100993.06;;;12.65;70.37
32789;BME280;19141;48.980;8.410;2024-03-17T08:30:58;100988.75;;;13.81;68.00
32789;BME280;19141;48.980;8.410;2024-03-17T08:33:25;100989.59;;;14.15;64.58
32789;BME280;19141;48.980;8.410;2024-03-17T08:38:19;100989.56;;;14.04;65.98
32789;BME280;19141;48.980;8.410;2024-03-17T08:40:47;100985.97;;;13.87;66.81
32789;BME280;19141;48.980;8.410;2024-03-17T08:43:12;100976.28;;;12.33;74.03
32789;BME280;19141;48.980;8.410;2024-03-17T08:45:37;100980.41;;;14.09;65.20
32789;BME280;19141;48.980;8.410;2024-03-17T08:48:03;100970.81;;;14.83;64.79
32789;BME280;19141;48.980;8.410;2024-03-17T08:50:28;100975.59;;;11.92;77.55
32789;BME280;19141;48.980;8.410;2024-03-17T08:52:54;100968.00;;;13.62;68.28
32789;BME280;19141;48.980;8.410;2024-03-17T08:55:19;100967.63;;;13.97;66.86
32789;BME280;19141;48.980;8.410;2024-03-17T08:57:45;100975.56;;;14.21;69.40
32789;BME280;19141;48.980;8.410;2024-03-17T09:00:11;100960.63;;;15.61;62.43
32789;BME280;19141;48.980;8.410;2024-03-17T09:02:36;100961.69;;;15.52;60.46
32789;BME280;19141;48.980;8.410;2024-03-17T09:05:02;100968.84;;;17.57;56.67
32789;BME280;19141;48.980;8.410;2024-03-17T09:07:29;100964.97;;;17.60;53.91
32789;BME280;19141;48.980;8.410;2024-03-17T09:09:54;100957.06;;;17.09;54.98
32789;BME280;19141;48.980;8.410;2024-03-17T09:12:20;100959.28;;;15.04;60.29
32789;BME280;19141;48.980;8.410;2024-03-17T09:14:47;100965.66;;;15.10;61.13
32789;BME280;19141;48.980;8.410;2024-03-17T09:17:13;100971.53;;;14.39;63.70
32789;BME280;19141;48.980;8.410;2024-03-17T09:19:38;100966.56;;;16.04;59.30
32789;BME280;19141;48.980;8.410;2024-03-17T09:22:03;100974.69;;;16.55;57.97
32789;BME280;19141;48.980;8.410;2024-03-17T09:24:30;100966.81;;;19.11;50.69
32789;BME280;19141;48.980;8.410;2024-03-17T09:26:56;100966.31;;;17.04;55.31
32789;BME280;19141;48.980;8.410;2024-03-17T09:29:21;100973.72;;;16.83;57.95
32789;BME280;19141;48.980;8.410;2024-03-17T09:31:46;100971.41;;;17.98;52.97
32789;BME280;19141;48.980;8.410;2024-03-17T09:34:12;100955.66;;;16.67;56.03
32789;BME280;19141;48.980;8.410;2024-03-17T09:36:37;100955.50;;;15.76;58.74
32789;BME280;19141;48.980;8.410;2024-03-17T09:39:03;100951.91;;;16.89;56.27
32789;BME280;19141;48.980;8.410;2024-03-17T09:41:30;100951.06;;;15.11;59.17
32789;BME280;19141;48.980;8.410;2024-03-17T09:43:57;100960.16;;;15.57;60.73
32789;BME280;19141;48.980;8.410;2024-03-17T09:46:23;100955.19;;;14.26;63.43
32789;BME280;19141;48.980;8.410;2024-03-17T09:48:49;100952.59;;;15.18;60.48
32789;BME280;19141;48.980;8.410;2024-03-17T09:51:23;100958.97;;;15.24;59.22
32789;BME280;19141;48.980;8.410;2024-03-17T09:53:49;100950.19;;;16.44;59.57
32789;BME280;19141;48.980;8.410;2024-03-17T09:56:16;100948.63;;;18.60;52.67
32789;BME280;19141;48.980;8.410;2024-03-17T09:58:45;100946.25;;;18.65;51.68
32789;BME280;19141;48.980;8.410;2024-03-17T10:01:10;100949.31;;;18.34;51.37
32789;BME280;19141;48.980;8.410;2024-03-17T10:03:53;100955.06;;;20.28;49.62
32789;BME280;19141;48.980;8.410;2024-03-17T10:06:24;100954.88;;;18.72;49.68
32789;BME280;19141;48.980;8.410;2024-03-17T10:08:51;100954.00;;;21.23;45.90
32789;BME280;19141;48.980;8.410;2024-03-17T10:11:19;100956.69;;;18.70;50.02
32789;BME280;19141;48.980;8.410;2024-03-17T10:13:46;100960.16;;;19.35;49.63
32789;BME280;19141;48.980;8.410;2024-03-17T10:16:23;100965.59;;;19.19;50.78
32789;BME280;19141;48.980;8.410;2024-03-17T10:18:49;100960.69;;;18.29;51.35
32789;BME280;19141;48.980;8.410;2024-03-17T10:21:27;100965.38;;;19.04;50.07
32789;BME280;19141;48.980;8.410;2024-03-17T10:24:06;100963.47;;;17.97;50.76
32789;BME280;19141;48.980;8.410;2024-03-17T10:26:40;100970.19;;;17.93;51.39
32789;BME280;19141;48.980;8.410;2024-03-17T10:29:20;100969.84;;;18.35;51.55
32789;BME280;19141;48.980;8.410;2024-03-17T10:31:46;100963.16;;;18.51;50.09
32789;BME280;19141;48.980;8.410;2024-03-17T10:34:15;100968.47;;;18.74;50.07
32789;BME280;19141;48.980;8.410;2024-03-17T10:36:47;100958.88;;;16.82;54.33
32789;BME280;19141;48.980;8.410;2024-03-17T10:39:33;100955.41;;;18.38;51.71
32789;BME280;19141;48.980;8.410;2024-03-17T10:42:00;100951.75;;;17.68;50.64
32789;BME280;19141;48.980;8.410;2024-03-17T10:44:27;100937.09;;;17.07;50.27
32789;BME280;19141;48.980;8.410;2024-03-17T10:46:55;100935.13;;;18.85;47.92
32789;BME280;19141;48.980;8.410;2024-03-17T10:49:31;100934.50;;;19.93;48.86
32789;BME280;19141;48.980;8.410;2024-03-17T10:52:08;100929.16;;;16.81;53.52
32789;BME280;19141;48.980;8.410;2024-03-17T10:54:40;100932.97;;;18.59;46.88
32789;BME280;19141;48.980;8.410;2024-03-17T11:00:04;100927.00;;;18.63;47.33
32789;BME280;19141;48.980;8.410;2024-03-17T11:02:31;100925.94;;;17.83;48.29
32789;BME280;19141;48.980;8.410;2024-03-17T11:05:27;100923.84;;;17.02;50.00
32789;BME280;19141;48.980;8.410;2024-03-17T11:07:59;100926.13;;;18.55;47.75
32789;BME280;19141;48.980;8.410;2024-03-17T11:10:31;100914.78;;;18.74;48.12
32789;BME280;19141;48.980;8.410;2024-03-17T11:12:58;100911.91;;;18.28;47.25
32789;BME280;19141;48.980;8.410;2024-03-17T11:20:57;100907.84;;;19.15;46.64
32789;BME280;19141;48.980;8.410;2024-03-17T11:23:31;100910.38;;;19.79;45.81
32789;BME280;19141;48.980;8.410;2024-03-17T11:25:57;100902.84;;;19.21;47.00
32789;BME280;19141;48.980;8.410;2024-03-17T11:33:57;100911.31;;;18.16;50.63
32789;BME280;19141;48.980;8.410;2024-03-17T11:41:39;100901.03;;;18.65;46.69
32789;BME280;19141;48.980;8.410;2024-03-17T11:47:01;100895.34;;;16.81;52.02
32789;BME280;19141;48.980;8.410;2024-03-17T11:49:39;100901.56;;;18.50;50.38
32789;BME280;19141;48.980;8.410;2024-03-17T11:54:35;100894.47;;;16.37;52.90
32789;BME280;19141;48.980;8.410;2024-03-17T11:57:02;100892.81;;;18.02;48.58
32789;BME280;19141;48.980;8.410;2024-03-17T11:59:28;100892.13;;;18.60;47.84
32789;BME280;19141;48.980;8.410;2024-03-17T12:01:54;100891.91;;;18.26;48.45
32789;BME280;19141;48.980;8.410;2024-03-17T12:04:21;100893.44;;;17.57;49.61
32789;BME280;19141;48.980;8.410;2024-03-17T12:06:48;100894.84;;;17.88;49.91
32789;BME280;19141;48.980;8.410;2024-03-17T12:12:01;100889.84;;;17.38;52.12
32789;BME280;19141;48.980;8.410;2024-03-17T12:14:27;100879.41;;;17.52;49.76
32789;BME280;19141;48.980;8.410;2024-03-17T12:16:54;100881.34;;;17.19;51.59
32789;BME280;19141;48.980;8.410;2024-03-17T12:19:22;100870.84;;;18.14;50.36
32789;BME280;19141;48.980;8.410;2024-03-17T12:21:50;100868.97;;;17.03;51.64
32789;BME280;19141;48.980;8.410;2024-03-17T12:24:16;100865.16;;;18.46;50.99
32789;BME280;19141;48.980;8.410;2024-03-17T12:26:43;100860.19;;;19.19;48.81
32789;BME280;19141;48.980;8.410;2024-03-17T12:29:31;100863.69;;;17.94;50.19
32789;BME280;19141;48.980;8.410;2024-03-17T12:32:22;100869.50;;;18.47;48.93
32789;BME280;19141;48.980;8.410;2024-03-17T12:37:21;100843.59;;;18.75;46.96
32789;BME280;19141;48.980;8.410;2024-03-17T12:39:48;100848.00;;;18.71;49.57
32789;BME280;19141;48.980;8.410;2024-03-17T12:42:15;100849.06;;;17.96;49.46
32789;BME280;19141;48.980;8.410;2024-03-17T12:44:59;100844.41;;;17.98;49.48
32789;BME280;19141;48.980;8.410;2024-03-17T12:47:30;100839.78;;;18.99;46.83
32789;BME280;19141;48.980;8.410;2024-03-17T12:50:00;100842.75;;;18.48;49.31
32789;BME280;19141;48.980;8.410;2024-03-17T12:52:30;100840.53;;;17.44;51.41
32789;BME280;19141;48.980;8.410;2024-03-17T12:55:09;100847.03;;;18.09;49.60
32789;BME280;19141;48.980;8.410;2024-03-17T13:00:47;100835.63;;;17.07;51.00
32789;BME280;19141;48.980;8.410;2024-03-17T13:03:32;100836.72;;;16.49;53.81
32789;BME280;19141;48.980;8.410;2024-03-17T13:05:59;100839.50;;;19.37;50.36
32789;BME280;19141;48.980;8.410;2024-03-17T13:08:25;100824.47;;;18.23;50.88
32789;BME280;19141;48.980;8.410;2024-03-17T13:10:51;100816.66;;;17.08;52.66
32789;BME280;19141;48.980;8.410;2024-03-17T13:13:16;100830.88;;;17.40;53.31
32789;BME280;19141;48.980;8.410;2024-03-17T13:15:43;100824.81;;;17.30;53.45
32789;BME280;19141;48.980;8.410;2024-03-17T13:18:09;100815.94;;;17.96;51.54
32789;BME280;19141;48.980;8.410;2024-03-17T13:20:34;100824.59;;;17.28;53.08
32789;BME280;19141;48.980;8.410;2024-03-17T13:23:01;100821.22;;;17.67;53.29
32789;BME280;19141;48.980;8.410;2024-03-17T13:25:28;100817.97;;;17.82;53.58
32789;BME280;19141;48.980;8.410;2024-03-17T13:28:03;100808.03;;;17.00;54.41
32789;BME280;19141;48.980;8.410;2024-03-17T13:30:29;100812.31;;;17.63;53.36
32789;BME280;19141;48.980;8.410;2024-03-17T13:32:56;100810.16;;;17.69;53.78
32789;BME280;19141;48.980;8.410;2024-03-17T13:35:28;100798.53;;;17.22;55.20
32789;BME280;19141;48.980;8.410;2024-03-17T13:37:55;100794.16;;;16.83;55.63
32789;BME280;19141;48.980;8.410;2024-03-17T13:40:22;100794.84;;;17.46;54.63
32789;BME280;19141;48.980;8.410;2024-03-17T13:42:49;100792.56;;;18.28;51.28
32789;BME280;19141;48.980;8.410;2024-03-17T13:45:16;100789.41;;;17.86;54.43
32789;BME280;19141;48.980;8.410;2024-03-17T13:47:44;100799.44;;;18.00;52.63
32789;BME280;19141;48.980;8.410;2024-03-17T13:50:11;100783.13;;;17.93;50.84
32789;BME280;19141;48.980;8.410;2024-03-17T13:52:41;100779.53;;;17.79;52.95
32789;BME280;19141;48.980;8.410;2024-03-17T13:55:17;100778.47;;;17.44;52.30
32789;BME280;19141;48.980;8.410;2024-03-17T13:57:44;100767.78;;;18.21;49.18
32789;BME280;19141;48.980;8.410;2024-03-17T14:00:11;100777.00;;;17.76;52.13
32789;BME280;19141;48.980;8.410;2024-03-17T14:02:45;100781.97;;;18.02;50.73
32789;BME280;19141;48.980;8.410;2024-03-17T14:05:12;100776.38;;;17.32;52.78
32789;BME280;19141;48.980;8.410;2024-03-17T14:07:38;100778.06;;;17.73;51.71
32789;BME280;19141;48.980;8.410;2024-03-17T14:10:05;100777.41;;;16.91;52.47
32789;BME280;19141;48.980;8.410;2024-03-17T14:12:32;100784.25;;;16.76;54.59
32789;BME280;19141;48.980;8.410;2024-03-17T14:14:57;100769.69;;;16.23;53.55
32789;BME280;19141;48.980;8.410;2024-03-17T14:17:23;100775.31;;;16.48;54.73
32789;BME280;19141;48.980;8.410;2024-03-17T14:19:48;100773.38;;;16.13;55.64
32789;BME280;19141;48.980;8.410;2024-03-17T14:22:13;100758.88;;;16.52;53.96
32789;BME280;19141;48.980;8.410;2024-03-17T14:24:39;100764.16;;;16.12;54.56
32789;BME280;19141;48.980;8.410;2024-03-17T14:27:06;100757.91;;;15.95;54.92
32789;BME280;19141;48.980;8.410;2024-03-17T14:29:32;100755.78;;;16.80;52.88
32789;BME280;19141;48.980;8.410;2024-03-17T14:31:58;100750.97;;;16.50;53.39
32789;BME280;19141;48.980;8.410;2024-03-17T14:34:23;100753.03;;;16.25;54.47
32789;BME280;19141;48.980;8.410;2024-03-17T14:36:48;100754.97;;;16.12;55.29
32789;BME280;19141;48.980;8.410;2024-03-17T14:39:14;100749.16;;;16.28;54.90
32789;BME280;19141;48.980;8.410;2024-03-17T14:41:39;100745.28;;;16.32;55.06
32789;BME280;19141;48.980;8.410;2024-03-17T14:44:04;100751.88;;;16.15;55.36
32789;BME280;19141;48.980;8.410;2024-03-17T14:46:30;100749.31;;;16.36;54.56
32789;BME280;19141;48.980;8.410;2024-03-17T14:48:55;100744.56;;;16.50;54.04
32789;BME280;19141;48.980;8.410;2024-03-17T14:51:21;100742.13;;;16.41;53.34
32789;BME280;19141;48.980;8.410;2024-03-17T14:53:47;100736.34;;;16.27;52.13
32789;BME280;19141;48.980;8.410;2024-03-17T14:56:18;100729.13;;;16.38;53.01
32789;BME280;19141;48.980;8.410;2024-03-17T14:58:44;100730.38;;;15.88;54.63
32789;BME280;19141;48.980;8.410;2024-03-17T15:01:12;100731.72;;;15.40;56.42
32789;BME280;19141;48.980;8.410;2024-03-17T15:03:37;100725.91;;;14.90;58.77
32789;BME280;19141;48.980;8.410;2024-03-17T15:06:09;100728.00;;;15.26;57.76
32789;BME280;19141;48.980;8.410;2024-03-17T15:08:34;100739.00;;;15.18;58.89
32789;BME280;19141;48.980;8.410;2024-03-17T15:11:00;100735.56;;;15.01;58.94
32789;BME280;19141;48.980;8.410;2024-03-17T15:13:25;100725.31;;;15.09;58.93
32789;BME280;19141;48.980;8.410;2024-03-17T15:15:52;100722.84;;;14.88;59.56
32789;BME280;19141;48.980;8.410;2024-03-17T15:18:20;100725.72;;;14.72;60.29
32789;BME280;19141;48.980;8.410;2024-03-17T15:20:51;100725.09;;;14.96;59.76
32789;BME280;19141;48.980;8.410;2024-03-17T15:23:17;100734.50;;;15.09;58.38
32789;BME280;19141;48.980;8.410;2024-03-17T15:25:42;100724.78;;;15.05;59.76
32789;BME280;19141;48.980;8.410;2024-03-17T15:28:08;100717.97;;;14.95;60.78
32789;BME280;19141;48.980;8.410;2024-03-17T15:30:33;100717.88;;;14.48;62.16
32789;BME280;19141;48.980;8.410;2024-03-17T15:32:59;100718.19;;;14.21;64.22
32789;BME280;19141;48.980;8.410;2024-03-17T15:35:24;100724.78;;;14.41;64.53
32789;BME280;19141;48.980;8.410;2024-03-17T15:37:52;100720.22;;;14.32;65.60
32789;BME280;19141;48.980;8.410;2024-03-17T15:40:17;100724.56;;;14.22;67.07
32789;BME280;19141;48.980;8.410;2024-03-17T15:42:47;100729.19;;;14.14;66.93
32789;BME280;19141;48.980;8.410;2024-03-17T15:45:15;100727.13;;;14.26;67.49
32789;BME280;19141;48.980;8.410;2024-03-17T15:47:40;100718.72;;;14.09;66.96
32789;BME280;19141;48.980;8.410;2024-03-17T15:50:07;100728.13;;;14.39;66.74
32789;BME280;19141;48.980;8.410;2024-03-17T15:52:33;100730.38;;;14.41;67.44
32789;BME280;19141;48.980;8.410;2024-03-17T15:55:01;100722.28;;;14.26;67.48
32789;BME280;19141;48.980;8.410;2024-03-17T15:57:31;100721.47;;;14.42;65.87
32789;BME280;19141;48.980;8.410;2024-03-17T15:59:57;100712.53;;;14.44;67.05
32789;BME280;19141;48.980;8.410;2024-03-17T16:02:24;100709.81;;;14.16;68.01
32789;BME280;19141;48.980;8.410;2024-03-17T16:04:50;100706.28;;;13.87;69.37
32789;BME280;19141;48.980;8.410;2024-03-17T16:07:17;100706.03;;;13.68;70.35
32789;BME280;19141;48.980;8.410;2024-03-17T16:09:43;100699.66;;;13.68;71.26
32789;BME280;19141;48.980;8.410;2024-03-17T16:12:09;100689.34;;;14.32;68.16
32789;BME280;19141;48.980;8.410;2024-03-17T16:14:35;100689.84;;;14.42;67.30
32789;BME280;19141;48.980;8.410;2024-03-17T16:17:04;100686.84;;;14.12;70.02
32789;BME280;19141;48.980;8.410;2024-03-17T16:19:33;100688.41;;;14.02;70.70
32789;BME280;19141;48.980;8.410;2024-03-17T16:21:59;100680.25;;;13.98;70.57
32789;BME280;19141;48.980;8.410;2024-03-17T16:24:24;100679.50;;;13.86;72.70
32789;BME280;19141;48.980;8.410;2024-03-17T16:26:51;100683.09;;;13.87;71.92
32789;BME280;19141;48.980;8.410;2024-03-17T16:29:19;100684.25;;;14.36;68.45
32789;BME280;19141;48.980;8.410;2024-03-17T16:31:45;100677.44;;;13.98;71.63
32789;BME280;19141;48.980;8.410;2024-03-17T16:34:10;100691.16;;;14.24;72.42
32789;BME280;19141;48.980;8.410;2024-03-17T16:36:37;100679.41;;;14.31;70.94
32789;BME280;19141;48.980;8.410;2024-03-17T16:39:09;100678.16;;;14.21;72.53
32789;BME280;19141;48.980;8.410;2024-03-17T16:41:36;100678.16;;;14.21;73.84
32789;BME280;19141;48.980;8.410;2024-03-17T16:44:08;100678.50;;;13.78;72.88
32789;BME280;19141;48.980;8.410;2024-03-17T16:49:19;100676.19;;;13.20;76.27
32789;BME280;19141;48.980;8.410;2024-03-17T16:51:46;100684.88;;;13.28;77.65
32789;BME280;19141;48.980;8.410;2024-03-17T16:54:14;100676.75;;;13.36;79.56
32789;BME280;19141;48.980;8.410;2024-03-17T16:56:41;100676.25;;;13.48;76.68
32789;BME280;19141;48.980;8.410;2024-03-17T16:59:07;100676.72;;;13.30;75.67
32789;BME280;19141;48.980;8.410;2024-03-17T17:01:32;100682.31;;;13.41;78.89
32789;BME280;19141;48.980;8.410;2024-03-17T17:04:05;100677.22;;;13.34;78.89
32789;BME280;19141;48.980;8.410;2024-03-17T17:06:33;100675.72;;;13.33;78.84
32789;BME280;19141;48.980;8.410;2024-03-17T17:08:59;100677.97;;;13.23;80.27
32789;BME280;19141;48.980;8.410;2024-03-17T17:11:24;100684.28;;;13.01;81.73
32789;BME280;19141;48.980;8.410;2024-03-17T17:13:50;100682.00;;;13.05;82.88
32789;BME280;19141;48.980;8.410;2024-03-17T17:16:16;100675.38;;;12.92;85.69
32789;BME280;19141;48.980;8.410;2024-03-17T17:19:07;100678.56;;;12.56;87.38
32789;BME280;19141;48.980;8.410;2024-03-17T17:21:35;100676.38;;;12.89;85.99
32789;BME280;19141;48.980;8.410;2024-03-17T17:24:00;100678.19;;;12.97;85.09
32789;BME280;19141;48.980;8.410;2024-03-17T17:26:29;100673.78;;;12.68;86.27
32789;BME280;19141;48.980;8.410;2024-03-17T17:31:25;100669.91;;;12.49;86.33
32789;BME280;19141;48.980;8.410;2024-03-17T17:33:51;100668.09;;;12.46;87.62
32789;BME280;19141;48.980;8.410;2024-03-17T17:36:17;100665.84;;;12.55;87.10
32789;BME280;19141;48.980;8.410;2024-03-17T17:38:42;100666.06;;;12.46;89.23
32789;BME280;19141;48.980;8.410;2024-03-17T17:41:08;100671.66;;;12.52;89.52
32789;BME280;19141;48.980;8.410;2024-03-17T17:43:43;100670.81;;;12.29;90.15
32789;BME280;19141;48.980;8.410;2024-03-17T17:46:14;100670.59;;;11.89;94.72
32789;BME280;19141;48.980;8.410;2024-03-17T17:48:41;100679.13;;;12.12;93.23
32789;BME280;19141;48.980;8.410;2024-03-17T17:51:08;100667.38;;;12.02;93.56
32789;BME280;19141;48.980;8.410;2024-03-17T17:53:34;100668.78;;;11.86;92.65
32789;BME280;19141;48.980;8.410;2024-03-17T17:56:07;100664.34;;;11.69;94.54